createdAt,value
2019-02-08T00:00:36.452Z,48.73
2019-02-08T00:03:08.286Z,50.80
2019-02-08T00:05:40.123Z,56.57
2019-02-08T00:08:11.840Z,49.80
2019-02-08T00:10:43.901Z,54.10
2019-02-08T00:13:15.626Z,42.63
2019-02-08T00:15:47.444Z,41.00
2019-02-08T00:18:19.093Z,49.40
2019-02-08T00:20:50.816Z,47.90
2019-02-08T00:23:26.603Z,51.33
2019-02-08T00:25:56.380Z,46.57
2019-02-08T00:28:28.019Z,53.43
2019-02-08T00:30:59.660Z,52.43
2019-02-08T00:33:31.568Z,53.27
2019-02-08T00:36:03.711Z,47.57
2019-02-08T00:38:35.311Z,59.33
2019-02-08T00:41:07.046Z,49.00
2019-02-08T00:43:38.729Z,47.93
2019-02-08T00:46:10.459Z,53.70
2019-02-08T00:48:42.081Z,56.27
2019-02-08T00:51:13.812Z,49.73
2019-02-08T00:53:45.445Z,57.10
2019-02-08T00:56:17.095Z,59.23
2019-02-08T00:58:48.712Z,59.83
2019-02-08T01:01:20.359Z,64.43
2019-02-08T01:03:52.077Z,66.43
2019-02-08T01:06:23.708Z,40.47
2019-02-08T01:08:55.349Z,58.57
2019-02-08T01:11:26.984Z,36.77
2019-02-08T01:13:58.616Z,50.30
2019-02-08T01:16:30.567Z,49.10
2019-02-08T01:19:02.292Z,55.73
2019-02-08T01:21:34.044Z,65.80
2019-02-08T01:24:05.778Z,53.07
2019-02-08T01:26:37.416Z,50.90
2019-02-08T01:29:09.047Z,49.97
2019-02-08T01:31:40.770Z,55.30
2019-02-08T01:34:12.385Z,55.80
2019-02-08T01:36:44.013Z,52.50
2019-02-08T01:39:15.628Z,49.57
2019-02-08T01:41:47.368Z,50.60
2019-02-08T01:44:19.194Z,64.93
2019-02-08T01:46:50.837Z,54.40
2019-02-08T01:49:22.581Z,55.57
2019-02-08T01:51:54.220Z,60.13
2019-02-08T01:54:25.846Z,61.83
2019-02-08T01:56:57.589Z,45.33
2019-02-08T01:59:29.220Z,55.53
2019-02-08T02:02:00.964Z,50.93
2019-02-08T02:04:32.582Z,55.50
2019-02-08T02:07:04.212Z,58.33
2019-02-08T02:09:35.833Z,52.70
2019-02-08T02:12:07.476Z,46.60
2019-02-08T02:14:39.096Z,47.00
2019-02-08T02:17:10.837Z,58.57
2019-02-08T02:19:42.452Z,58.37
2019-02-08T02:22:14.085Z,58.73
2019-02-08T02:24:45.862Z,57.03
2019-02-08T02:27:17.488Z,53.57
2019-02-08T02:29:49.225Z,56.00
2019-02-08T02:32:20.861Z,44.70
2019-02-08T02:34:52.486Z,40.23
2019-02-08T02:37:24.138Z,49.53
2019-02-08T02:39:55.770Z,52.70
2019-02-08T02:42:27.493Z,43.50
2019-02-08T02:44:59.114Z,57.47
2019-02-08T02:47:30.744Z,51.00
2019-02-08T02:50:03.317Z,44.53
2019-02-08T02:52:35.050Z,63.73
2019-02-08T02:55:07.849Z,49.37
2019-02-08T02:57:39.969Z,50.17
2019-02-08T03:00:15.433Z,50.87
2019-02-08T03:02:47.522Z,54.43
2019-02-08T03:05:19.485Z,50.43
2019-02-08T03:07:51.790Z,46.00
2019-02-08T03:10:24.042Z,40.80
2019-02-08T03:12:56.104Z,55.77
2019-02-08T03:15:28.228Z,61.83
2019-02-08T03:18:00.458Z,42.30
2019-02-08T03:20:32.642Z,53.73
2019-02-08T03:23:04.985Z,47.97
2019-02-08T03:25:37.192Z,49.70
2019-02-08T03:28:09.406Z,48.33
2019-02-08T03:30:45.524Z,50.77
2019-02-08T03:33:17.671Z,60.13
2019-02-08T03:35:49.812Z,51.30
2019-02-08T03:38:22.058Z,54.17
2019-02-08T03:40:54.184Z,43.77
2019-02-08T03:43:26.550Z,51.63
2019-02-08T03:45:58.517Z,56.53
2019-02-08T03:48:30.556Z,49.83
2019-02-08T03:51:02.387Z,35.27
2019-02-08T03:53:34.023Z,52.10
2019-02-08T03:56:05.628Z,43.80
2019-02-08T03:58:37.260Z,44.87
2019-02-08T04:01:10.419Z,52.97
2019-02-08T04:03:42.248Z,56.10
2019-02-08T04:06:13.869Z,59.37
2019-02-08T04:08:45.604Z,43.00
2019-02-08T04:11:17.224Z,45.43
2019-02-08T04:13:48.865Z,47.50
2019-02-08T04:16:20.501Z,50.43
2019-02-08T04:18:52.245Z,43.13
2019-02-08T04:21:23.878Z,69.53
2019-02-08T04:23:55.516Z,51.90
2019-02-08T04:26:27.131Z,57.93
2019-02-08T04:28:58.802Z,51.20
2019-02-08T04:31:30.418Z,50.20
2019-02-08T04:34:02.166Z,60.53
2019-02-08T04:36:33.792Z,42.23
2019-02-08T04:39:06.644Z,44.20
2019-02-08T04:41:38.412Z,45.20
2019-02-08T04:44:10.122Z,44.70
2019-02-08T04:46:41.745Z,44.27
2019-02-08T04:49:13.386Z,41.87
2019-02-08T04:51:45.021Z,53.27
2019-02-08T04:54:16.697Z,52.90
2019-02-08T04:56:48.349Z,38.13
2019-02-08T04:59:19.982Z,52.37
2019-02-08T05:01:51.620Z,35.70
2019-02-08T05:04:23.252Z,49.33
2019-02-08T05:06:54.883Z,41.87
2019-02-08T05:09:26.529Z,40.03
2019-02-08T05:11:58.185Z,35.77
2019-02-08T05:14:29.845Z,40.63
2019-02-08T05:17:01.484Z,32.90
2019-02-08T05:19:33.119Z,40.67
2019-02-08T05:22:04.751Z,38.47
2019-02-08T05:24:36.470Z,31.43
2019-02-08T05:27:08.090Z,30.13
2019-02-08T05:29:39.742Z,45.20
2019-02-08T05:32:11.353Z,36.70
2019-02-08T05:34:42.994Z,43.03
2019-02-08T05:37:14.609Z,31.97
2019-02-08T05:39:46.348Z,49.60
2019-02-08T05:42:17.988Z,40.50
2019-02-08T05:44:51.191Z,43.93
2019-02-08T05:47:22.829Z,37.03
2019-02-08T05:49:54.472Z,35.70
2019-02-08T05:52:26.094Z,42.53
2019-02-08T05:54:57.744Z,50.17
2019-02-08T05:57:29.379Z,42.83
2019-02-08T06:00:01.232Z,39.17
2019-02-08T06:02:32.870Z,40.97
2019-02-08T06:05:05.591Z,33.10
2019-02-08T06:07:37.222Z,26.13
2019-02-08T06:10:09.713Z,35.60
2019-02-08T06:12:41.457Z,26.13
2019-02-08T06:15:15.541Z,44.83
2019-02-08T06:17:47.409Z,34.90
2019-02-08T06:20:19.501Z,38.57
2019-02-08T06:22:51.427Z,30.57
2019-02-08T06:25:23.384Z,30.13
2019-02-08T06:27:55.098Z,48.23
2019-02-08T06:30:26.842Z,35.33
2019-02-08T06:32:58.663Z,44.17
2019-02-08T06:35:30.407Z,54.60
2019-02-08T06:38:02.320Z,36.03
2019-02-08T06:40:35.640Z,50.70
2019-02-08T06:43:07.473Z,45.23
2019-02-08T06:45:39.433Z,30.93
2019-02-08T06:48:12.062Z,35.50
2019-02-08T06:50:43.797Z,24.37
2019-02-08T06:53:15.429Z,30.20
2019-02-08T06:55:47.103Z,43.30
2019-02-08T06:58:27.571Z,32.03
2019-02-08T07:01:30.769Z,38.60
2019-02-08T07:04:40.510Z,29.50
2019-02-08T07:07:27.581Z,33.57
2019-02-08T07:10:27.041Z,20.03
2019-02-08T07:13:21.265Z,22.67
2019-02-08T07:16:00.573Z,37.57
2019-02-08T07:18:40.265Z,36.53
2019-02-08T07:21:23.641Z,42.23
2019-02-08T07:24:05.297Z,34.30
2019-02-08T07:27:11.898Z,27.53
2019-02-08T07:30:07.249Z,28.83
2019-02-08T07:33:04.201Z,28.83
2019-02-08T07:35:46.673Z,32.33
2019-02-08T07:38:33.314Z,24.13
2019-02-08T07:41:21.880Z,26.80
2019-02-08T07:44:12.337Z,29.87
2019-02-08T07:47:08.349Z,19.23
2019-02-08T07:49:49.016Z,17.60
2019-02-08T07:52:47.166Z,15.50
2019-02-08T07:55:31.573Z,19.13
2019-02-08T07:58:29.375Z,28.03
2019-02-08T08:01:17.621Z,27.60
2019-02-08T08:04:01.421Z,19.83
2019-02-08T08:06:46.077Z,18.67
2019-02-08T08:09:26.975Z,20.67
2019-02-08T08:12:08.970Z,20.90
2019-02-08T08:14:53.222Z,15.43
2019-02-08T08:17:43.220Z,18.00
2019-02-08T08:20:51.213Z,21.60
2019-02-08T08:23:52.160Z,17.63
2019-02-08T08:26:38.461Z,16.87
2019-02-08T08:29:35.506Z,19.60
2019-02-08T08:32:24.117Z,14.10
2019-02-08T08:35:29.729Z,14.23
2019-02-08T08:38:20.194Z,12.33
2019-02-08T08:41:23.578Z,14.07
2019-02-08T08:44:27.201Z,12.63
2019-02-08T08:47:35.330Z,12.70
2019-02-08T08:50:35.793Z,14.40
2019-02-08T08:53:58.327Z,20.70
2019-02-08T08:57:04.477Z,13.13
2019-02-08T09:00:11.670Z,17.27
2019-02-08T09:03:10.144Z,16.60
2019-02-08T09:06:08.582Z,14.47
2019-02-08T09:09:18.236Z,13.53
2019-02-08T09:12:30.928Z,15.13
2019-02-08T09:15:35.002Z,17.37
2019-02-08T09:18:50.049Z,9.77
2019-02-08T09:21:48.930Z,12.37
2019-02-08T09:24:51.850Z,12.97
2019-02-08T09:27:55.339Z,16.70
2019-02-08T09:31:01.749Z,11.83
2019-02-08T09:34:04.370Z,15.27
2019-02-08T09:36:55.838Z,11.00
2019-02-08T09:39:55.659Z,7.60
2019-02-08T09:43:29.721Z,10.00
2019-02-08T09:46:34.881Z,13.20
2019-02-08T09:49:36.432Z,12.30
2019-02-08T09:52:14.716Z,8.97
2019-02-08T09:55:28.853Z,11.53
2019-02-08T09:58:25.474Z,10.87
2019-02-08T10:01:50.935Z,6.10
2019-02-08T10:04:51.210Z,11.80
2019-02-08T10:07:38.542Z,10.33
2019-02-08T10:10:46.951Z,10.70
2019-02-08T10:13:55.081Z,8.60
2019-02-08T10:16:55.024Z,13.73
2019-02-08T10:19:52.941Z,12.30
2019-02-08T10:22:58.953Z,8.00
2019-02-08T10:26:21.019Z,10.37
2019-02-08T10:29:30.337Z,13.63
2019-02-08T10:32:45.890Z,17.10
2019-02-08T10:35:56.175Z,17.73
2019-02-08T10:39:34.344Z,14.77
2019-02-08T10:42:32.859Z,10.03
2019-02-08T10:45:31.322Z,17.23
2019-02-08T10:48:34.411Z,9.97
2019-02-08T10:51:55.505Z,13.10
2019-02-08T10:55:24.351Z,27.47
2019-02-08T10:58:51.544Z,14.00
2019-02-08T11:01:57.352Z,18.67
2019-02-08T11:05:13.877Z,20.20
2019-02-08T11:08:17.781Z,11.33
2019-02-08T11:11:18.994Z,33.03
2019-02-08T11:14:19.881Z,20.37
2019-02-08T11:17:28.538Z,13.20
2019-02-08T11:20:00.207Z,13.00
2019-02-08T11:22:31.925Z,22.57
2019-02-08T11:25:04.428Z,15.40
2019-02-08T11:27:36.240Z,13.07
2019-02-08T11:30:11.390Z,25.37
2019-02-08T11:32:43.764Z,11.67
2019-02-08T11:35:15.842Z,10.10
2019-02-08T11:37:47.572Z,20.10
2019-02-08T11:40:23.990Z,15.33
2019-02-08T11:42:55.720Z,14.83
2019-02-08T11:45:27.457Z,7.53
2019-02-08T11:47:59.082Z,20.53
2019-02-08T11:50:30.733Z,12.83
2019-02-08T11:53:02.462Z,13.03
2019-02-08T11:55:34.104Z,7.03
2019-02-08T11:58:05.835Z,11.23
2019-02-08T12:00:41.289Z,16.73
2019-02-08T12:03:12.915Z,8.60
2019-02-08T12:05:44.656Z,10.93
2019-02-08T12:08:16.381Z,10.63
2019-02-08T12:10:48.116Z,12.27
2019-02-08T12:13:19.864Z,9.10
2019-02-08T12:15:51.509Z,9.90
2019-02-08T12:18:23.227Z,10.20
2019-02-08T12:20:54.953Z,17.07
2019-02-08T12:23:26.601Z,12.20
2019-02-08T12:25:58.250Z,17.77
2019-02-08T12:28:31.795Z,18.10
2019-02-08T12:31:03.757Z,12.73
2019-02-08T12:33:35.381Z,12.53
2019-02-08T12:36:07.035Z,10.47
2019-02-08T12:38:38.660Z,13.77
2019-02-08T12:41:10.293Z,12.73
2019-02-08T12:43:41.930Z,10.97
2019-02-08T12:46:13.591Z,12.93
2019-02-08T12:48:45.221Z,15.87
2019-02-08T12:51:16.869Z,11.30
2019-02-08T12:53:48.496Z,26.57
2019-02-08T12:56:20.238Z,9.73
2019-02-08T12:58:51.874Z,11.67
2019-02-08T13:01:23.529Z,12.70
2019-02-08T13:03:55.178Z,19.00
2019-02-08T13:06:26.931Z,12.80
2019-02-08T13:08:58.694Z,5.50
2019-02-08T13:11:30.356Z,14.03
2019-02-08T13:14:02.228Z,9.33
2019-02-08T13:16:33.854Z,15.80
2019-02-08T13:19:05.504Z,8.87
2019-02-08T13:21:37.162Z,17.87
2019-02-08T13:24:09.192Z,13.53
2019-02-08T13:26:40.837Z,13.43
2019-02-08T13:29:12.460Z,5.73
2019-02-08T13:31:44.092Z,5.83
2019-02-08T13:34:15.733Z,11.87
2019-02-08T13:36:47.364Z,14.20
2019-02-08T13:39:19.009Z,9.50
2019-02-08T13:41:50.729Z,8.50
2019-02-08T13:44:22.359Z,11.73
2019-02-08T13:46:54.006Z,9.77
2019-02-08T13:49:25.650Z,13.20
2019-02-08T13:51:57.307Z,8.50
2019-02-08T13:54:29.158Z,7.80
2019-02-08T13:57:00.982Z,10.47
2019-02-08T13:59:32.633Z,16.13
2019-02-08T14:02:04.261Z,14.03
2019-02-08T14:04:35.892Z,8.03
2019-02-08T14:07:07.653Z,12.40
2019-02-08T14:09:39.332Z,11.00
2019-02-08T14:12:10.988Z,11.17
2019-02-08T14:14:42.649Z,10.43
2019-02-08T14:17:14.308Z,20.63
2019-02-08T14:19:45.940Z,8.10
2019-02-08T14:22:17.579Z,22.10
2019-02-08T14:24:49.312Z,23.70
2019-02-08T14:27:20.958Z,6.93
2019-02-08T14:29:52.675Z,28.83
2019-02-08T14:32:24.316Z,6.60
2019-02-08T14:34:55.945Z,11.93
2019-02-08T14:37:27.576Z,9.20
2019-02-08T14:39:59.224Z,8.87
2019-02-08T14:42:30.856Z,12.83
2019-02-08T14:45:04.953Z,5.77
2019-02-08T14:47:36.589Z,9.37
2019-02-08T14:50:10.861Z,7.53
2019-02-08T14:52:42.636Z,10.10
2019-02-08T14:55:14.478Z,15.23
2019-02-08T14:57:46.404Z,8.10
2019-02-08T15:00:18.967Z,8.10
2019-02-08T15:02:50.705Z,11.57
2019-02-08T15:05:22.445Z,5.53
2019-02-08T15:07:54.083Z,10.37
2019-02-08T15:10:28.237Z,15.80
2019-02-08T15:13:00.462Z,11.77
2019-02-08T15:15:32.325Z,5.57
2019-02-08T15:18:04.734Z,7.20
2019-02-08T15:20:37.345Z,25.43
2019-02-08T15:23:09.105Z,10.50
2019-02-08T15:25:40.831Z,10.67
2019-02-08T15:28:12.471Z,11.67
2019-02-08T15:30:44.189Z,5.67
2019-02-08T15:33:15.832Z,7.13
2019-02-08T15:35:47.714Z,12.60
2019-02-08T15:38:19.376Z,5.73
2019-02-08T15:40:53.259Z,8.47
2019-02-08T15:43:25.700Z,5.77
2019-02-08T15:46:02.001Z,5.40
2019-02-08T15:48:33.748Z,9.77
2019-02-08T15:51:05.609Z,5.80
2019-02-08T15:53:37.254Z,5.73
2019-02-08T15:56:13.857Z,10.23
2019-02-08T15:58:45.508Z,9.57
2019-02-08T16:01:17.336Z,8.73
2019-02-08T16:03:49.177Z,4.50
2019-02-08T16:06:20.800Z,7.57
2019-02-08T16:08:52.462Z,9.83
2019-02-08T16:11:24.084Z,10.90
2019-02-08T16:13:55.749Z,14.77
2019-02-08T16:16:27.485Z,10.93
2019-02-08T16:18:59.126Z,11.23
2019-02-08T16:21:30.752Z,2.83
2019-02-08T16:24:02.610Z,14.40
2019-02-08T16:26:34.240Z,12.80
2019-02-08T16:29:06.012Z,9.80
2019-02-08T16:31:37.739Z,10.17
2019-02-08T16:34:09.489Z,3.87
2019-02-08T16:36:41.134Z,6.47
2019-02-08T16:39:12.980Z,6.13
2019-02-08T16:41:44.601Z,11.07
2019-02-08T16:44:16.354Z,5.87
2019-02-08T16:46:47.988Z,9.00
2019-02-08T16:49:19.626Z,11.63
2019-02-08T16:51:51.360Z,5.70
2019-02-08T16:54:23.005Z,16.20
2019-02-08T16:56:54.629Z,7.20
2019-02-08T16:59:26.360Z,12.63
2019-02-08T17:01:58.011Z,10.70
2019-02-08T17:04:29.669Z,8.20
2019-02-08T17:07:01.399Z,5.73
2019-02-08T17:09:33.049Z,6.13
2019-02-08T17:12:04.936Z,12.10
2019-02-08T17:14:36.573Z,14.17
2019-02-08T17:17:08.369Z,9.57
2019-02-08T17:19:40.001Z,12.27
2019-02-08T17:22:11.627Z,6.63
2019-02-08T17:24:43.252Z,17.37
2019-02-08T17:27:14.885Z,9.80
2019-02-08T17:29:46.522Z,11.50
2019-02-08T17:32:18.170Z,8.87
2019-02-08T17:34:49.965Z,12.80
2019-02-08T17:37:21.622Z,8.97
2019-02-08T17:39:53.265Z,13.03
2019-02-08T17:42:24.901Z,6.97
2019-02-08T17:44:56.554Z,8.17
2019-02-08T17:47:28.174Z,11.03
2019-02-08T17:49:59.820Z,11.27
2019-02-08T17:52:31.463Z,12.90
2019-02-08T17:55:04.965Z,12.37
2019-02-08T17:57:36.672Z,11.97
2019-02-08T18:00:13.754Z,11.17
2019-02-08T18:02:45.420Z,13.03
2019-02-08T18:05:17.158Z,6.40
2019-02-08T18:07:48.798Z,15.87
2019-02-08T18:10:20.595Z,16.20
2019-02-08T18:12:52.242Z,8.33
2019-02-08T18:15:23.992Z,18.50
2019-02-08T18:17:55.756Z,12.07
2019-02-08T18:20:29.624Z,12.40
2019-02-08T18:23:01.262Z,10.93
2019-02-08T18:25:32.897Z,13.67
2019-02-08T18:28:10.785Z,10.03
2019-02-08T18:30:39.713Z,13.13
2019-02-08T18:33:11.345Z,10.73
2019-02-08T18:35:43.157Z,10.87
2019-02-08T18:38:14.800Z,14.93
2019-02-08T18:40:46.500Z,7.33
2019-02-08T18:43:18.150Z,8.63
2019-02-08T18:45:49.850Z,7.23
2019-02-08T18:48:21.477Z,14.60
2019-02-08T18:50:53.363Z,7.93
2019-02-08T18:53:25.016Z,7.67
2019-02-08T18:55:56.666Z,10.83
2019-02-08T18:58:28.380Z,8.00
2019-02-08T19:01:00.109Z,10.23
2019-02-08T19:03:31.802Z,15.03
2019-02-08T19:06:03.769Z,8.93
2019-02-08T19:08:35.401Z,12.70
2019-02-08T19:11:07.086Z,6.43
2019-02-08T19:13:38.722Z,8.50
2019-02-08T19:16:10.486Z,9.50
2019-02-08T19:18:42.141Z,6.00
2019-02-08T19:21:13.911Z,6.70
2019-02-08T19:23:45.557Z,11.67
2019-02-08T19:26:17.561Z,7.53
2019-02-08T19:28:49.210Z,10.47
2019-02-08T19:31:20.904Z,9.90
2019-02-08T19:33:52.613Z,11.30
2019-02-08T19:36:24.282Z,9.37
2019-02-08T19:38:55.944Z,11.37
2019-02-08T19:41:27.745Z,9.80
2019-02-08T19:43:59.445Z,10.80
2019-02-08T19:46:31.205Z,11.53
2019-02-08T19:49:03.174Z,10.20
2019-02-08T19:51:34.845Z,10.93
2019-02-08T19:54:06.553Z,5.93
2019-02-08T19:56:38.253Z,12.10
2019-02-08T19:59:09.887Z,9.17
2019-02-08T20:01:41.588Z,5.47
2019-02-08T20:04:13.466Z,14.23
2019-02-08T20:06:45.217Z,14.27
2019-02-08T20:09:17.086Z,11.87
2019-02-08T20:11:48.777Z,14.57
2019-02-08T20:14:20.420Z,24.17
2019-02-08T20:16:52.157Z,8.23
2019-02-08T20:19:23.821Z,12.47
2019-02-08T20:21:55.598Z,8.03
2019-02-08T20:24:27.291Z,10.03
2019-02-08T20:26:58.987Z,12.30
2019-02-08T20:29:30.642Z,10.93
2019-02-08T20:32:02.736Z,9.90
2019-02-08T20:34:34.525Z,17.70
2019-02-08T20:37:06.182Z,17.30
2019-02-08T20:39:37.837Z,9.50
2019-02-08T20:42:09.674Z,11.23
2019-02-08T20:44:41.324Z,14.23
2019-02-08T20:47:13.001Z,7.73
2019-02-08T20:49:44.688Z,11.67
2019-02-08T20:52:16.439Z,15.40
2019-02-08T20:54:48.231Z,14.27
2019-02-08T20:57:20.202Z,12.50
2019-02-08T20:59:52.007Z,12.20
2019-02-08T21:02:24.074Z,12.03
2019-02-08T21:04:55.964Z,13.40
2019-02-08T21:07:27.960Z,10.53
2019-02-08T21:10:00.253Z,9.17
2019-02-08T21:12:32.379Z,13.00
2019-02-08T21:15:04.810Z,15.50
2019-02-08T21:17:36.619Z,11.00
2019-02-08T21:20:08.658Z,12.03
2019-02-08T21:22:40.458Z,10.27
2019-02-08T21:25:15.925Z,16.07
2019-02-08T21:27:47.682Z,14.37
2019-02-08T21:30:19.350Z,13.67
2019-02-08T21:32:51.110Z,14.60
2019-02-08T21:35:22.852Z,10.30
2019-02-08T21:37:54.807Z,19.87
2019-02-08T21:40:26.885Z,11.57
2019-02-08T21:42:58.587Z,17.23
2019-02-08T21:45:32.021Z,16.80
2019-02-08T21:48:05.625Z,11.17
2019-02-08T21:50:37.452Z,14.00
2019-02-08T21:53:09.306Z,16.33
2019-02-08T21:55:41.045Z,15.17
2019-02-08T21:58:12.691Z,16.53
2019-02-08T22:00:44.509Z,16.90
2019-02-08T22:03:16.147Z,14.47
2019-02-08T22:05:59.492Z,11.13
2019-02-08T22:08:31.141Z,26.83
2019-02-08T22:11:03.050Z,13.47
2019-02-08T22:13:34.730Z,12.67
2019-02-08T22:16:06.484Z,13.50
2019-02-08T22:18:38.158Z,15.37
2019-02-08T22:21:10.013Z,15.27
2019-02-08T22:23:41.727Z,13.50
2019-02-08T22:26:13.457Z,15.23
2019-02-08T22:28:45.802Z,15.63
2019-02-08T22:31:17.626Z,17.90
2019-02-08T22:33:49.290Z,17.43
2019-02-08T22:36:21.121Z,21.80
2019-02-08T22:38:52.882Z,19.07
2019-02-08T22:41:24.549Z,9.83
2019-02-08T22:43:56.190Z,25.83
2019-02-08T22:46:27.830Z,16.13
2019-02-08T22:48:59.521Z,16.27
2019-02-08T22:51:31.163Z,20.20
2019-02-08T22:54:03.129Z,18.07
2019-02-08T22:56:34.765Z,9.30
2019-02-08T22:59:06.434Z,21.67
2019-02-08T23:01:43.314Z,13.60
2019-02-08T23:04:14.964Z,10.93
2019-02-08T23:06:46.598Z,15.13
2019-02-08T23:09:19.707Z,18.87
2019-02-08T23:11:51.646Z,20.40
2019-02-08T23:14:23.393Z,15.80
2019-02-08T23:16:55.145Z,14.53
2019-02-08T23:19:26.810Z,18.00
2019-02-08T23:21:58.430Z,16.70
2019-02-08T23:24:30.101Z,14.77
2019-02-08T23:27:01.737Z,17.23
2019-02-08T23:29:33.387Z,12.63
2019-02-08T23:32:05.014Z,15.80
2019-02-08T23:34:36.656Z,11.83
2019-02-08T23:37:08.285Z,19.20
2019-02-08T23:39:39.935Z,13.07
2019-02-08T23:42:11.773Z,12.40
2019-02-08T23:44:43.426Z,18.50
2019-02-08T23:47:15.059Z,12.37
2019-02-08T23:49:46.713Z,15.13
2019-02-08T23:52:18.342Z,11.57
2019-02-08T23:54:49.994Z,11.37
2019-02-08T23:57:21.640Z,23.47
2019-02-08T23:59:53.270Z,13.30
